sensor_id;sensor_type;location;lat;lon;timestamp;P1;durP1;ratioP1;P2;durP2;ratioP2
75316;SDS011;63913;51.492;10.368;2022-12-18T00:01:44;4.93;;;2.43;;
75316;SDS011;63913;51.492;10.368;2022-12-18T00:04:28;9.50;;;3.28;;
75316;SDS011;63913;51.492;10.368;2022-12-18T00:06:54;5.70;;;2.60;;
75316;SDS011;63913;51.492;10.368;2022-12-18T00:09:19;4.63;;;3.00;;
75316;SDS011;63913;51.492;10.368;2022-12-18T00:11:45;6.03;;;2.78;;
75316;SDS011;63913;51.492;10.368;2022-12-18T00:14:11;6.93;;;2.90;;
75316;SDS011;63913;51.492;10.368;2022-12-18T00:16:38;8.27;;;3.40;;
75316;SDS011;63913;51.492;10.368;2022-12-18T00:19:04;7.82;;;3.03;;
75316;SDS011;63913;51.492;10.368;2022-12-18T00:21:31;8.00;;;4.18;;
75316;SDS011;63913;51.492;10.368;2022-12-18T00:23:57;6.68;;;2.55;;
75316;SDS011;63913;51.492;10.368;2022-12-18T00:26:25;10.75;;;3.08;;
75316;SDS011;63913;51.492;10.368;2022-12-18T00:28:52;5.90;;;2.30;;
75316;SDS011;63913;51.492;10.368;2022-12-18T00:31:21;5.70;;;2.65;;
75316;SDS011;63913;51.492;10.368;2022-12-18T00:33:48;6.65;;;2.72;;
75316;SDS011;63913;51.492;10.368;2022-12-18T00:36:15;6.03;;;2.30;;
75316;SDS011;63913;51.492;10.368;2022-12-18T00:38:45;2.85;;;1.98;;
75316;SDS011;63913;51.492;10.368;2022-12-18T00:41:11;5.40;;;2.30;;
75316;SDS011;63913;51.492;10.368;2022-12-18T00:43:38;5.63;;;2.63;;
75316;SDS011;63913;51.492;10.368;2022-12-18T00:46:04;5.07;;;2.70;;
75316;SDS011;63913;51.492;10.368;2022-12-18T00:48:30;6.65;;;3.15;;
75316;SDS011;63913;51.492;10.368;2022-12-18T00:50:55;6.38;;;3.17;;
75316;SDS011;63913;51.492;10.368;2022-12-18T00:53:21;10.20;;;3.03;;
75316;SDS011;63913;51.492;10.368;2022-12-18T00:55:46;7.05;;;3.20;;
75316;SDS011;63913;51.492;10.368;2022-12-18T00:58:12;6.78;;;3.33;;
75316;SDS011;63913;51.492;10.368;2022-12-18T01:00:40;7.00;;;3.03;;
75316;SDS011;63913;51.492;10.368;2022-12-18T01:03:06;4.30;;;2.95;;
75316;SDS011;63913;51.492;10.368;2022-12-18T01:05:31;4.30;;;2.30;;
75316;SDS011;63913;51.492;10.368;2022-12-18T01:07:57;2.55;;;1.48;;
75316;SDS011;63913;51.492;10.368;2022-12-18T01:10:23;2.50;;;1.75;;
75316;SDS011;63913;51.492;10.368;2022-12-18T01:12:49;5.60;;;1.55;;
75316;SDS011;63913;51.492;10.368;2022-12-18T01:15:15;4.18;;;2.50;;
75316;SDS011;63913;51.492;10.368;2022-12-18T01:17:41;5.80;;;2.83;;
75316;SDS011;63913;51.492;10.368;2022-12-18T01:20:07;4.70;;;2.50;;
75316;SDS011;63913;51.492;10.368;2022-12-18T01:22:34;5.07;;;1.90;;
75316;SDS011;63913;51.492;10.368;2022-12-18T01:25:00;6.43;;;3.13;;
75316;SDS011;63913;51.492;10.368;2022-12-18T01:27:25;6.07;;;3.30;;
75316;SDS011;63913;51.492;10.368;2022-12-18T01:29:50;6.73;;;3.03;;
75316;SDS011;63913;51.492;10.368;2022-12-18T01:32:16;6.47;;;2.38;;
75316;SDS011;63913;51.492;10.368;2022-12-18T01:34:41;4.95;;;2.10;;
75316;SDS011;63913;51.492;10.368;2022-12-18T01:37:06;6.83;;;2.70;;
75316;SDS011;63913;51.492;10.368;2022-12-18T01:39:32;8.52;;;2.65;;
75316;SDS011;63913;51.492;10.368;2022-12-18T01:41:58;10.00;;;4.32;;
75316;SDS011;63913;51.492;10.368;2022-12-18T01:47:35;9.68;;;4.45;;
75316;SDS011;63913;51.492;10.368;2022-12-18T01:50:22;13.48;;;4.57;;
75316;SDS011;63913;51.492;10.368;2022-12-18T01:52:51;18.00;;;5.82;;
75316;SDS011;63913;51.492;10.368;2022-12-18T01:55:20;22.35;;;7.32;;
75316;SDS011;63913;51.492;10.368;2022-12-18T01:57:49;24.08;;;7.35;;
75316;SDS011;63913;51.492;10.368;2022-12-18T02:00:18;30.85;;;8.68;;
75316;SDS011;63913;51.492;10.368;2022-12-18T02:02:46;24.90;;;7.53;;
75316;SDS011;63913;51.492;10.368;2022-12-18T02:05:12;85.53;;;19.52;;
75316;SDS011;63913;51.492;10.368;2022-12-18T02:10:18;68.97;;;16.50;;
75316;SDS011;63913;51.492;10.368;2022-12-18T02:16:04;57.45;;;14.35;;
75316;SDS011;63913;51.492;10.368;2022-12-18T02:18:40;42.72;;;10.45;;
75316;SDS011;63913;51.492;10.368;2022-12-18T02:23:51;103.70;;;27.30;;
75316;SDS011;63913;51.492;10.368;2022-12-18T02:26:37;68.70;;;21.38;;
75316;SDS011;63913;51.492;10.368;2022-12-18T02:32:26;25.05;;;9.00;;
75316;SDS011;63913;51.492;10.368;2022-12-18T02:34:55;9.10;;;4.50;;
75316;SDS011;63913;51.492;10.368;2022-12-18T02:37:23;12.90;;;4.95;;
75316;SDS011;63913;51.492;10.368;2022-12-18T02:39:52;9.25;;;4.72;;
75316;SDS011;63913;51.492;10.368;2022-12-18T02:42:21;20.90;;;6.47;;
75316;SDS011;63913;51.492;10.368;2022-12-18T02:44:49;14.23;;;5.00;;
75316;SDS011;63913;51.492;10.368;2022-12-18T02:47:20;14.30;;;5.78;;
75316;SDS011;63913;51.492;10.368;2022-12-18T02:52:25;10.73;;;5.07;;
75316;SDS011;63913;51.492;10.368;2022-12-18T02:57:56;8.15;;;4.75;;
75316;SDS011;63913;51.492;10.368;2022-12-18T03:03:42;9.35;;;4.47;;
75316;SDS011;63913;51.492;10.368;2022-12-18T03:06:18;9.68;;;4.40;;
75316;SDS011;63913;51.492;10.368;2022-12-18T03:08:52;9.15;;;4.38;;
75316;SDS011;63913;51.492;10.368;2022-12-18T03:11:21;11.05;;;4.97;;
75316;SDS011;63913;51.492;10.368;2022-12-18T03:14:06;17.55;;;5.78;;
75316;SDS011;63913;51.492;10.368;2022-12-18T03:16:33;11.15;;;3.88;;
75316;SDS011;63913;51.492;10.368;2022-12-18T03:19:04;11.05;;;4.50;;
75316;SDS011;63913;51.492;10.368;2022-12-18T03:21:36;13.48;;;6.22;;
75316;SDS011;63913;51.492;10.368;2022-12-18T03:24:07;15.68;;;6.53;;
75316;SDS011;63913;51.492;10.368;2022-12-18T03:26:34;14.25;;;6.50;;
75316;SDS011;63913;51.492;10.368;2022-12-18T03:29:11;21.67;;;10.10;;
75316;SDS011;63913;51.492;10.368;2022-12-18T03:31:40;21.52;;;9.18;;
75316;SDS011;63913;51.492;10.368;2022-12-18T03:34:13;14.07;;;5.95;;
75316;SDS011;63913;51.492;10.368;2022-12-18T03:36:42;11.10;;;4.65;;
75316;SDS011;63913;51.492;10.368;2022-12-18T03:39:08;10.60;;;5.30;;
75316;SDS011;63913;51.492;10.368;2022-12-18T03:41:44;8.60;;;3.75;;
75316;SDS011;63913;51.492;10.368;2022-12-18T03:44:17;10.15;;;4.57;;
75316;SDS011;63913;51.492;10.368;2022-12-18T03:46:51;11.95;;;4.97;;
75316;SDS011;63913;51.492;10.368;2022-12-18T03:52:20;9.40;;;3.85;;
75316;SDS011;63913;51.492;10.368;2022-12-18T03:54:51;11.35;;;5.03;;
75316;SDS011;63913;51.492;10.368;2022-12-18T03:57:20;10.15;;;4.13;;
75316;SDS011;63913;51.492;10.368;2022-12-18T03:59:49;13.25;;;5.53;;
75316;SDS011;63913;51.492;10.368;2022-12-18T04:02:17;6.63;;;3.22;;
75316;SDS011;63913;51.492;10.368;2022-12-18T04:04:43;8.20;;;3.85;;
75316;SDS011;63913;51.492;10.368;2022-12-18T04:07:11;7.38;;;3.53;;
75316;SDS011;63913;51.492;10.368;2022-12-18T04:09:38;9.38;;;3.55;;
75316;SDS011;63913;51.492;10.368;2022-12-18T04:12:06;8.60;;;3.90;;
75316;SDS011;63913;51.492;10.368;2022-12-18T04:14:31;14.35;;;5.68;;
75316;SDS011;63913;51.492;10.368;2022-12-18T04:17:00;9.80;;;4.00;;
75316;SDS011;63913;51.492;10.368;2022-12-18T04:19:26;8.82;;;3.38;;
75316;SDS011;63913;51.492;10.368;2022-12-18T04:21:51;8.90;;;3.80;;
75316;SDS011;63913;51.492;10.368;2022-12-18T04:24:16;10.23;;;4.00;;
75316;SDS011;63913;51.492;10.368;2022-12-18T04:26:42;7.35;;;3.90;;
75316;SDS011;63913;51.492;10.368;2022-12-18T04:29:07;13.90;;;4.67;;
75316;SDS011;63913;51.492;10.368;2022-12-18T04:31:32;12.70;;;4.30;;
75316;SDS011;63913;51.492;10.368;2022-12-18T04:33:58;9.10;;;4.60;;
75316;SDS011;63913;51.492;10.368;2022-12-18T04:36:23;12.63;;;4.93;;
75316;SDS011;63913;51.492;10.368;2022-12-18T04:38:48;13.50;;;5.77;;
75316;SDS011;63913;51.492;10.368;2022-12-18T04:41:14;14.93;;;5.32;;
75316;SDS011;63913;51.492;10.368;2022-12-18T04:43:39;7.27;;;3.77;;
75316;SDS011;63913;51.492;10.368;2022-12-18T04:46:05;5.93;;;3.43;;
75316;SDS011;63913;51.492;10.368;2022-12-18T04:48:31;13.07;;;4.32;;
75316;SDS011;63913;51.492;10.368;2022-12-18T04:50:57;13.00;;;4.60;;
75316;SDS011;63913;51.492;10.368;2022-12-18T04:53:22;8.00;;;3.70;;
75316;SDS011;63913;51.492;10.368;2022-12-18T04:55:48;12.63;;;5.47;;
75316;SDS011;63913;51.492;10.368;2022-12-18T04:58:13;10.30;;;4.33;;
75316;SDS011;63913;51.492;10.368;2022-12-18T05:00:39;9.43;;;4.50;;
75316;SDS011;63913;51.492;10.368;2022-12-18T05:03:04;5.05;;;2.60;;
75316;SDS011;63913;51.492;10.368;2022-12-18T05:05:29;8.67;;;3.70;;
75316;SDS011;63913;51.492;10.368;2022-12-18T05:07:55;8.57;;;3.88;;
75316;SDS011;63913;51.492;10.368;2022-12-18T05:10:20;8.93;;;3.83;;
75316;SDS011;63913;51.492;10.368;2022-12-18T05:12:46;8.40;;;3.90;;
75316;SDS011;63913;51.492;10.368;2022-12-18T05:15:23;5.90;;;2.67;;
75316;SDS011;63913;51.492;10.368;2022-12-18T05:17:52;7.60;;;2.90;;
75316;SDS011;63913;51.492;10.368;2022-12-18T05:20:18;7.30;;;2.85;;
75316;SDS011;63913;51.492;10.368;2022-12-18T05:22:43;6.38;;;3.03;;
75316;SDS011;63913;51.492;10.368;2022-12-18T05:25:09;7.15;;;3.20;;
75316;SDS011;63913;51.492;10.368;2022-12-18T05:27:34;4.40;;;2.53;;
75316;SDS011;63913;51.492;10.368;2022-12-18T05:29:59;13.47;;;3.57;;
75316;SDS011;63913;51.492;10.368;2022-12-18T05:32:24;7.67;;;3.03;;
75316;SDS011;63913;51.492;10.368;2022-12-18T05:34:50;6.97;;;3.63;;
75316;SDS011;63913;51.492;10.368;2022-12-18T05:37:15;9.67;;;4.27;;
75316;SDS011;63913;51.492;10.368;2022-12-18T05:39:42;11.60;;;3.28;;
75316;SDS011;63913;51.492;10.368;2022-12-18T05:42:07;4.63;;;2.67;;
75316;SDS011;63913;51.492;10.368;2022-12-18T05:44:33;7.73;;;3.10;;
75316;SDS011;63913;51.492;10.368;2022-12-18T05:46:58;7.57;;;3.53;;
75316;SDS011;63913;51.492;10.368;2022-12-18T05:49:24;9.77;;;3.80;;
75316;SDS011;63913;51.492;10.368;2022-12-18T05:51:49;8.93;;;3.93;;
75316;SDS011;63913;51.492;10.368;2022-12-18T05:54:14;9.00;;;4.33;;
75316;SDS011;63913;51.492;10.368;2022-12-18T05:56:40;12.20;;;4.80;;
75316;SDS011;63913;51.492;10.368;2022-12-18T05:59:05;10.33;;;4.20;;
75316;SDS011;63913;51.492;10.368;2022-12-18T06:01:30;10.18;;;4.18;;
75316;SDS011;63913;51.492;10.368;2022-12-18T06:03:56;15.40;;;5.47;;
75316;SDS011;63913;51.492;10.368;2022-12-18T06:06:22;14.67;;;4.97;;
75316;SDS011;63913;51.492;10.368;2022-12-18T06:08:49;11.98;;;4.15;;
75316;SDS011;63913;51.492;10.368;2022-12-18T06:11:17;13.55;;;4.80;;
75316;SDS011;63913;51.492;10.368;2022-12-18T06:13:44;8.77;;;4.65;;
75316;SDS011;63913;51.492;10.368;2022-12-18T06:16:09;14.00;;;5.70;;
75316;SDS011;63913;51.492;10.368;2022-12-18T06:18:35;14.65;;;5.75;;
75316;SDS011;63913;51.492;10.368;2022-12-18T06:21:00;13.25;;;6.47;;
75316;SDS011;63913;51.492;10.368;2022-12-18T06:23:26;17.52;;;7.32;;
75316;SDS011;63913;51.492;10.368;2022-12-18T06:25:52;17.35;;;6.72;;
75316;SDS011;63913;51.492;10.368;2022-12-18T06:28:18;9.35;;;4.65;;
75316;SDS011;63913;51.492;10.368;2022-12-18T06:30:44;11.52;;;5.35;;
75316;SDS011;63913;51.492;10.368;2022-12-18T06:33:10;8.55;;;3.63;;
75316;SDS011;63913;51.492;10.368;2022-12-18T06:35:35;8.43;;;4.10;;
75316;SDS011;63913;51.492;10.368;2022-12-18T06:38:01;13.93;;;3.50;;
75316;SDS011;63913;51.492;10.368;2022-12-18T06:40:27;7.45;;;3.70;;
75316;SDS011;63913;51.492;10.368;2022-12-18T06:42:52;10.17;;;4.30;;
75316;SDS011;63913;51.492;10.368;2022-12-18T06:45:17;14.67;;;5.23;;
75316;SDS011;63913;51.492;10.368;2022-12-18T06:47:43;14.70;;;4.57;;
75316;SDS011;63913;51.492;10.368;2022-12-18T06:50:08;13.60;;;5.00;;
75316;SDS011;63913;51.492;10.368;2022-12-18T06:52:34;12.32;;;4.07;;
75316;SDS011;63913;51.492;10.368;2022-12-18T06:54:59;9.20;;;4.65;;
75316;SDS011;63913;51.492;10.368;2022-12-18T06:57:25;9.75;;;3.05;;
75316;SDS011;63913;51.492;10.368;2022-12-18T06:59:50;10.10;;;3.90;;
75316;SDS011;63913;51.492;10.368;2022-12-18T07:02:15;12.90;;;4.83;;
75316;SDS011;63913;51.492;10.368;2022-12-18T07:04:41;11.55;;;4.03;;
75316;SDS011;63913;51.492;10.368;2022-12-18T07:07:06;10.70;;;4.13;;
75316;SDS011;63913;51.492;10.368;2022-12-18T07:09:31;13.20;;;5.03;;
75316;SDS011;63913;51.492;10.368;2022-12-18T07:11:57;10.83;;;4.73;;
75316;SDS011;63913;51.492;10.368;2022-12-18T07:14:22;9.70;;;3.87;;
75316;SDS011;63913;51.492;10.368;2022-12-18T07:16:47;7.13;;;3.93;;
75316;SDS011;63913;51.492;10.368;2022-12-18T07:19:13;8.60;;;3.80;;
75316;SDS011;63913;51.492;10.368;2022-12-18T07:21:38;8.57;;;4.07;;
75316;SDS011;63913;51.492;10.368;2022-12-18T07:24:04;9.43;;;3.57;;
75316;SDS011;63913;51.492;10.368;2022-12-18T07:26:29;7.95;;;3.75;;
75316;SDS011;63913;51.492;10.368;2022-12-18T07:28:56;7.40;;;3.53;;
75316;SDS011;63913;51.492;10.368;2022-12-18T07:31:22;6.32;;;3.20;;
75316;SDS011;63913;51.492;10.368;2022-12-18T07:33:49;10.20;;;3.75;;
75316;SDS011;63913;51.492;10.368;2022-12-18T07:36:15;14.25;;;3.65;;
75316;SDS011;63913;51.492;10.368;2022-12-18T07:38:40;8.02;;;3.60;;
75316;SDS011;63913;51.492;10.368;2022-12-18T07:41:07;11.27;;;5.15;;
75316;SDS011;63913;51.492;10.368;2022-12-18T07:43:34;13.80;;;4.38;;
75316;SDS011;63913;51.492;10.368;2022-12-18T07:46:01;10.23;;;4.22;;
75316;SDS011;63913;51.492;10.368;2022-12-18T07:48:27;14.73;;;4.97;;
75316;SDS011;63913;51.492;10.368;2022-12-18T07:50:52;9.55;;;4.05;;
75316;SDS011;63913;51.492;10.368;2022-12-18T07:53:18;8.83;;;3.80;;
75316;SDS011;63913;51.492;10.368;2022-12-18T07:55:43;9.53;;;3.30;;
75316;SDS011;63913;51.492;10.368;2022-12-18T07:58:08;8.77;;;3.53;;
75316;SDS011;63913;51.492;10.368;2022-12-18T08:00:34;5.73;;;2.93;;
75316;SDS011;63913;51.492;10.368;2022-12-18T08:03:00;8.52;;;3.70;;
75316;SDS011;63913;51.492;10.368;2022-12-18T08:17:09;16.77;;;6.30;;
75316;SDS011;63913;51.492;10.368;2022-12-18T08:19:34;12.17;;;5.17;;
75316;SDS011;63913;51.492;10.368;2022-12-18T08:21:59;15.53;;;4.70;;
75316;SDS011;63913;51.492;10.368;2022-12-18T08:24:25;23.90;;;8.27;;
75316;SDS011;63913;51.492;10.368;2022-12-18T08:26:50;15.93;;;7.93;;
75316;SDS011;63913;51.492;10.368;2022-12-18T08:29:16;17.83;;;8.52;;
75316;SDS011;63913;51.492;10.368;2022-12-18T08:31:41;19.70;;;6.00;;
75316;SDS011;63913;51.492;10.368;2022-12-18T08:34:07;17.25;;;6.28;;
75316;SDS011;63913;51.492;10.368;2022-12-18T08:36:32;12.13;;;4.70;;
75316;SDS011;63913;51.492;10.368;2022-12-18T08:38:58;10.43;;;4.20;;
75316;SDS011;63913;51.492;10.368;2022-12-18T08:41:23;14.47;;;4.40;;
75316;SDS011;63913;51.492;10.368;2022-12-18T08:43:48;15.98;;;4.95;;
75316;SDS011;63913;51.492;10.368;2022-12-18T08:46:35;14.70;;;5.05;;
75316;SDS011;63913;51.492;10.368;2022-12-18T08:49:03;13.82;;;4.88;;
75316;SDS011;63913;51.492;10.368;2022-12-18T08:51:29;5.95;;;2.85;;
75316;SDS011;63913;51.492;10.368;2022-12-18T08:53:54;6.22;;;3.15;;
75316;SDS011;63913;51.492;10.368;2022-12-18T08:56:19;15.53;;;5.80;;
75316;SDS011;63913;51.492;10.368;2022-12-18T08:58:45;8.77;;;4.22;;
75316;SDS011;63913;51.492;10.368;2022-12-18T09:01:11;8.95;;;3.80;;
75316;SDS011;63913;51.492;10.368;2022-12-18T09:03:37;8.77;;;3.60;;
75316;SDS011;63913;51.492;10.368;2022-12-18T09:06:03;6.18;;;2.70;;
75316;SDS011;63913;51.492;10.368;2022-12-18T09:08:29;7.15;;;3.63;;
75316;SDS011;63913;51.492;10.368;2022-12-18T09:10:54;9.60;;;2.50;;
75316;SDS011;63913;51.492;10.368;2022-12-18T09:13:20;8.15;;;3.22;;
75316;SDS011;63913;51.492;10.368;2022-12-18T09:15:50;4.93;;;2.35;;
75316;SDS011;63913;51.492;10.368;2022-12-18T09:18:17;13.57;;;3.67;;
75316;SDS011;63913;51.492;10.368;2022-12-18T09:20:44;7.70;;;3.70;;
75316;SDS011;63913;51.492;10.368;2022-12-18T09:23:10;9.63;;;3.33;;
75316;SDS011;63913;51.492;10.368;2022-12-18T09:25:35;5.88;;;2.10;;
75316;SDS011;63913;51.492;10.368;2022-12-18T09:28:02;7.72;;;2.80;;
75316;SDS011;63913;51.492;10.368;2022-12-18T09:30:31;13.40;;;3.42;;
75316;SDS011;63913;51.492;10.368;2022-12-18T09:32:59;7.25;;;3.22;;
75316;SDS011;63913;51.492;10.368;2022-12-18T09:35:25;8.48;;;3.35;;
75316;SDS011;63913;51.492;10.368;2022-12-18T09:37:50;8.20;;;3.10;;
75316;SDS011;63913;51.492;10.368;2022-12-18T09:40:16;7.73;;;3.93;;
75316;SDS011;63913;51.492;10.368;2022-12-18T09:42:45;5.63;;;3.05;;
75316;SDS011;63913;51.492;10.368;2022-12-18T09:45:14;4.75;;;2.50;;
75316;SDS011;63913;51.492;10.368;2022-12-18T09:47:41;5.93;;;2.95;;
75316;SDS011;63913;51.492;10.368;2022-12-18T09:52:49;7.53;;;3.17;;
75316;SDS011;63913;51.492;10.368;2022-12-18T09:55:22;7.88;;;2.35;;
75316;SDS011;63913;51.492;10.368;2022-12-18T09:57:57;6.10;;;2.83;;
75316;SDS011;63913;51.492;10.368;2022-12-18T10:00:30;7.68;;;3.10;;
75316;SDS011;63913;51.492;10.368;2022-12-18T10:02:59;9.70;;;2.85;;
75316;SDS011;63913;51.492;10.368;2022-12-18T10:16:08;6.70;;;2.85;;
75316;SDS011;63913;51.492;10.368;2022-12-18T10:21:19;6.72;;;2.85;;
75316;SDS011;63913;51.492;10.368;2022-12-18T10:23:52;8.27;;;2.95;;
75316;SDS011;63913;51.492;10.368;2022-12-18T10:26:26;6.47;;;2.90;;
75316;SDS011;63913;51.492;10.368;2022-12-18T10:28:52;7.60;;;2.80;;
75316;SDS011;63913;51.492;10.368;2022-12-18T10:31:19;6.13;;;2.95;;
75316;SDS011;63913;51.492;10.368;2022-12-18T10:33:47;7.20;;;2.15;;
75316;SDS011;63913;51.492;10.368;2022-12-18T10:36:12;7.85;;;2.95;;
75316;SDS011;63913;51.492;10.368;2022-12-18T10:38:38;7.75;;;3.10;;
75316;SDS011;63913;51.492;10.368;2022-12-18T10:41:22;7.78;;;2.88;;
75316;SDS011;63913;51.492;10.368;2022-12-18T10:44:14;6.28;;;2.35;;
75316;SDS011;63913;51.492;10.368;2022-12-18T10:46:43;12.88;;;3.03;;
75316;SDS011;63913;51.492;10.368;2022-12-18T10:49:21;5.95;;;2.72;;
75316;SDS011;63913;51.492;10.368;2022-12-18T10:51:50;9.38;;;2.45;;
75316;SDS011;63913;51.492;10.368;2022-12-18T10:54:21;5.00;;;2.75;;
75316;SDS011;63913;51.492;10.368;2022-12-18T10:56:47;6.20;;;2.88;;
75316;SDS011;63913;51.492;10.368;2022-12-18T10:59:14;5.82;;;3.10;;
75316;SDS011;63913;51.492;10.368;2022-12-18T11:07:07;11.18;;;3.47;;
75316;SDS011;63913;51.492;10.368;2022-12-18T11:09:38;6.05;;;2.63;;
75316;SDS011;63913;51.492;10.368;2022-12-18T11:12:15;5.80;;;2.67;;
75316;SDS011;63913;51.492;10.368;2022-12-18T11:14:45;5.65;;;2.38;;
75316;SDS011;63913;51.492;10.368;2022-12-18T11:17:19;11.00;;;3.30;;
75316;SDS011;63913;51.492;10.368;2022-12-18T11:19:55;8.88;;;3.20;;
75316;SDS011;63913;51.492;10.368;2022-12-18T11:22:24;9.48;;;3.67;;
75316;SDS011;63913;51.492;10.368;2022-12-18T11:27:23;7.45;;;3.28;;
75316;SDS011;63913;51.492;10.368;2022-12-18T11:29:49;7.25;;;2.60;;
75316;SDS011;63913;51.492;10.368;2022-12-18T11:34:57;8.65;;;3.20;;
75316;SDS011;63913;51.492;10.368;2022-12-18T11:37:27;6.90;;;3.22;;
75316;SDS011;63913;51.492;10.368;2022-12-18T11:40:06;10.05;;;3.55;;
75316;SDS011;63913;51.492;10.368;2022-12-18T11:42:49;4.93;;;2.75;;
75316;SDS011;63913;51.492;10.368;2022-12-18T11:45:30;6.32;;;2.85;;
75316;SDS011;63913;51.492;10.368;2022-12-18T11:48:09;6.25;;;3.08;;
75316;SDS011;63913;51.492;10.368;2022-12-18T11:53:12;6.83;;;3.10;;
75316;SDS011;63913;51.492;10.368;2022-12-18T11:58:27;4.65;;;2.72;;
75316;SDS011;63913;51.492;10.368;2022-12-18T12:01:36;8.00;;;2.85;;
75316;SDS011;63913;51.492;10.368;2022-12-18T12:06:45;6.88;;;3.55;;
75316;SDS011;63913;51.492;10.368;2022-12-18T12:09:33;8.75;;;3.40;;
75316;SDS011;63913;51.492;10.368;2022-12-18T12:25:41;8.70;;;3.28;;
75316;SDS011;63913;51.492;10.368;2022-12-18T12:30:51;12.83;;;3.43;;
75316;SDS011;63913;51.492;10.368;2022-12-18T12:36:11;9.38;;;3.40;;
75316;SDS011;63913;51.492;10.368;2022-12-18T12:39:08;8.07;;;3.30;;
75316;SDS011;63913;51.492;10.368;2022-12-18T12:41:38;8.35;;;2.90;;
75316;SDS011;63913;51.492;10.368;2022-12-18T12:44:29;7.47;;;3.05;;
75316;SDS011;63913;51.492;10.368;2022-12-18T12:47:00;5.43;;;2.55;;
75316;SDS011;63913;51.492;10.368;2022-12-18T12:49:31;6.07;;;3.00;;
75316;SDS011;63913;51.492;10.368;2022-12-18T12:52:04;8.65;;;2.83;;
75316;SDS011;63913;51.492;10.368;2022-12-18T12:54:32;5.65;;;3.05;;
75316;SDS011;63913;51.492;10.368;2022-12-18T12:57:05;10.77;;;2.95;;
75316;SDS011;63913;51.492;10.368;2022-12-18T13:07:38;8.10;;;2.88;;
75316;SDS011;63913;51.492;10.368;2022-12-18T13:16:06;5.22;;;2.90;;
75316;SDS011;63913;51.492;10.368;2022-12-18T13:18:32;13.32;;;4.22;;
75316;SDS011;63913;51.492;10.368;2022-12-18T13:25:52;6.40;;;2.70;;
75316;SDS011;63913;51.492;10.368;2022-12-18T13:33:39;7.53;;;2.83;;
75316;SDS011;63913;51.492;10.368;2022-12-18T13:38:47;7.07;;;3.20;;
75316;SDS011;63913;51.492;10.368;2022-12-18T13:43:44;12.90;;;3.95;;
75316;SDS011;63913;51.492;10.368;2022-12-18T13:51:32;9.05;;;3.88;;
75316;SDS011;63913;51.492;10.368;2022-12-18T13:54:06;13.98;;;3.72;;
75316;SDS011;63913;51.492;10.368;2022-12-18T13:56:44;10.05;;;3.72;;
75316;SDS011;63913;51.492;10.368;2022-12-18T13:59:21;7.88;;;4.05;;
75316;SDS011;63913;51.492;10.368;2022-12-18T14:04:25;9.10;;;3.75;;
75316;SDS011;63913;51.492;10.368;2022-12-18T14:06:55;13.50;;;4.28;;
75316;SDS011;63913;51.492;10.368;2022-12-18T14:09:28;10.30;;;3.17;;
75316;SDS011;63913;51.492;10.368;2022-12-18T14:11:55;8.80;;;4.20;;
75316;SDS011;63913;51.492;10.368;2022-12-18T14:14:45;9.50;;;3.67;;
75316;SDS011;63913;51.492;10.368;2022-12-18T14:17:13;10.43;;;3.88;;
75316;SDS011;63913;51.492;10.368;2022-12-18T14:19:46;10.73;;;4.03;;
75316;SDS011;63913;51.492;10.368;2022-12-18T14:22:17;8.45;;;3.97;;
75316;SDS011;63913;51.492;10.368;2022-12-18T14:24:46;11.20;;;4.13;;
75316;SDS011;63913;51.492;10.368;2022-12-18T14:27:23;8.80;;;3.90;;
75316;SDS011;63913;51.492;10.368;2022-12-18T14:29:50;11.10;;;4.18;;
75316;SDS011;63913;51.492;10.368;2022-12-18T14:32:19;11.05;;;4.35;;
75316;SDS011;63913;51.492;10.368;2022-12-18T14:37:11;11.10;;;4.23;;
75316;SDS011;63913;51.492;10.368;2022-12-18T14:39:38;10.82;;;4.18;;
75316;SDS011;63913;51.492;10.368;2022-12-18T14:42:03;7.13;;;3.30;;
75316;SDS011;63913;51.492;10.368;2022-12-18T14:44:29;10.27;;;4.43;;
75316;SDS011;63913;51.492;10.368;2022-12-18T14:46:54;8.40;;;3.50;;
75316;SDS011;63913;51.492;10.368;2022-12-18T14:51:55;10.02;;;4.10;;
75316;SDS011;63913;51.492;10.368;2022-12-18T14:54:23;12.30;;;3.92;;
75316;SDS011;63913;51.492;10.368;2022-12-18T14:59:39;9.27;;;3.92;;
75316;SDS011;63913;51.492;10.368;2022-12-18T15:02:15;10.30;;;4.57;;
75316;SDS011;63913;51.492;10.368;2022-12-18T15:04:45;7.15;;;3.75;;
75316;SDS011;63913;51.492;10.368;2022-12-18T15:07:18;7.95;;;4.07;;
75316;SDS011;63913;51.492;10.368;2022-12-18T15:10:10;12.02;;;4.18;;
75316;SDS011;63913;51.492;10.368;2022-12-18T15:12:47;9.35;;;3.38;;
75316;SDS011;63913;51.492;10.368;2022-12-18T15:20:39;9.90;;;3.58;;
75316;SDS011;63913;51.492;10.368;2022-12-18T15:23:17;10.77;;;3.80;;
75316;SDS011;63913;51.492;10.368;2022-12-18T15:25:55;9.10;;;3.80;;
75316;SDS011;63913;51.492;10.368;2022-12-18T15:36:19;13.77;;;4.18;;
75316;SDS011;63913;51.492;10.368;2022-12-18T15:38:46;14.07;;;3.90;;
75316;SDS011;63913;51.492;10.368;2022-12-18T15:41:18;12.18;;;4.43;;
75316;SDS011;63913;51.492;10.368;2022-12-18T15:43:46;9.93;;;4.03;;
75316;SDS011;63913;51.492;10.368;2022-12-18T15:46:13;11.00;;;4.28;;
75316;SDS011;63913;51.492;10.368;2022-12-18T15:48:43;15.43;;;4.72;;
75316;SDS011;63913;51.492;10.368;2022-12-18T15:51:18;9.95;;;4.45;;
75316;SDS011;63913;51.492;10.368;2022-12-18T15:53:46;9.48;;;3.78;;
75316;SDS011;63913;51.492;10.368;2022-12-18T15:56:14;9.90;;;4.68;;
75316;SDS011;63913;51.492;10.368;2022-12-18T15:58:59;12.32;;;4.22;;
75316;SDS011;63913;51.492;10.368;2022-12-18T16:01:25;11.63;;;4.78;;
75316;SDS011;63913;51.492;10.368;2022-12-18T16:03:53;9.90;;;3.72;;
75316;SDS011;63913;51.492;10.368;2022-12-18T16:06:19;11.75;;;4.35;;
75316;SDS011;63913;51.492;10.368;2022-12-18T16:08:45;10.43;;;4.13;;
75316;SDS011;63913;51.492;10.368;2022-12-18T16:11:24;10.45;;;4.70;;
75316;SDS011;63913;51.492;10.368;2022-12-18T16:16:31;11.32;;;3.92;;
75316;SDS011;63913;51.492;10.368;2022-12-18T16:18:56;10.23;;;4.63;;
75316;SDS011;63913;51.492;10.368;2022-12-18T16:21:21;9.10;;;3.93;;
75316;SDS011;63913;51.492;10.368;2022-12-18T16:23:47;11.70;;;4.00;;
75316;SDS011;63913;51.492;10.368;2022-12-18T16:26:12;10.70;;;4.43;;
75316;SDS011;63913;51.492;10.368;2022-12-18T16:28:37;7.47;;;3.77;;
75316;SDS011;63913;51.492;10.368;2022-12-18T16:31:02;12.97;;;4.87;;
75316;SDS011;63913;51.492;10.368;2022-12-18T16:33:28;10.67;;;4.03;;
75316;SDS011;63913;51.492;10.368;2022-12-18T16:35:53;10.20;;;4.10;;
75316;SDS011;63913;51.492;10.368;2022-12-18T16:38:18;7.13;;;3.70;;
75316;SDS011;63913;51.492;10.368;2022-12-18T16:40:44;8.60;;;4.35;;
75316;SDS011;63913;51.492;10.368;2022-12-18T16:43:28;11.23;;;3.42;;
75316;SDS011;63913;51.492;10.368;2022-12-18T16:45:53;10.57;;;3.90;;
75316;SDS011;63913;51.492;10.368;2022-12-18T16:48:22;11.00;;;4.25;;
75316;SDS011;63913;51.492;10.368;2022-12-18T16:50:47;8.90;;;3.95;;
75316;SDS011;63913;51.492;10.368;2022-12-18T16:53:12;12.27;;;4.87;;
75316;SDS011;63913;51.492;10.368;2022-12-18T16:55:38;12.07;;;4.20;;
75316;SDS011;63913;51.492;10.368;2022-12-18T16:58:03;9.17;;;4.10;;
75316;SDS011;63913;51.492;10.368;2022-12-18T17:00:28;8.13;;;4.37;;
75316;SDS011;63913;51.492;10.368;2022-12-18T17:02:53;13.43;;;4.20;;
75316;SDS011;63913;51.492;10.368;2022-12-18T17:05:19;13.73;;;4.30;;
75316;SDS011;63913;51.492;10.368;2022-12-18T17:07:44;12.13;;;4.60;;
75316;SDS011;63913;51.492;10.368;2022-12-18T17:10:10;9.88;;;4.13;;